Time;durP1;ratioP1;P1;durP2;ratioP2;P2;SDS_P1;SDS_P2;PMS_P1;PMS_P2;Temp;Humidity;BMP_temperature;BMP_pressure;BME280_temperature;BME280_humidity;BME280_pressure;Samples;Min_cycle;Max_cycle;Signal;HPM_P1;HPM_P2
2022/01/07 00:00:20;;;;;;;;;3.00;3.00;;;;;3.83;71.99;101056.63;5026036;28;46236;-75
2022/01/07 00:02:49;;;;;;;;;3.50;3.00;;;;;3.76;71.89;101036.44;5029627;28;45492;-76
2022/01/07 00:05:15;;;;;;;;;7.50;4.50;;;;;3.70;72.53;101037.22;5032131;28;45480;-75
2022/01/07 00:07:41;;;;;;;;;6.00;5.00;;;;;3.63;73.03;101028.41;5024544;28;45701;-75
2022/01/07 00:10:10;;;;;;;;;6.50;5.50;;;;;3.61;74.02;101031.84;5024431;28;45448;-75
2022/01/07 00:12:36;;;;;;;;;6.75;6.75;;;;;3.59;73.63;101025.72;5028636;28;45497;-76
2022/01/07 00:15:04;;;;;;;;;5.50;3.25;;;;;3.53;73.89;101035.22;5028391;28;45432;-76
2022/01/07 00:17:29;;;;;;;;;4.00;4.00;;;;;3.50;74.73;101023.84;5031743;28;45797;-76
2022/01/07 00:19:56;;;;;;;;;6.50;4.00;;;;;3.43;74.71;100995.84;5033642;28;45493;-76
2022/01/07 00:22:22;;;;;;;;;3.50;3.50;;;;;3.40;75.50;101003.63;5030976;28;45450;-76
2022/01/07 00:24:47;;;;;;;;;7.00;5.50;;;;;3.34;75.76;101000.09;5032850;28;45588;-76
2022/01/07 00:27:12;;;;;;;;;4.00;4.00;;;;;3.32;76.19;100999.16;5028100;28;45384;-75
2022/01/07 00:29:38;;;;;;;;;4.50;4.00;;;;;3.30;76.08;100992.16;5035752;28;46057;-76
2022/01/07 00:32:03;;;;;;;;;3.00;1.00;;;;;3.24;77.54;100973.78;5033818;28;45466;-76
2022/01/07 00:34:29;;;;;;;;;3.50;3.50;;;;;3.16;77.58;100976.28;5031425;28;45447;-76
2022/01/07 00:36:54;;;;;;;;;7.00;5.50;;;;;3.13;78.92;100968.38;5033836;28;45496;-75
2022/01/07 00:39:20;;;;;;;;;4.00;3.00;;;;;3.07;78.80;100960.41;5030803;28;45572;-77
2022/01/07 00:41:45;;;;;;;;;9.25;6.25;;;;;3.06;78.82;100963.91;5033851;28;45489;-76
2022/01/07 00:44:10;;;;;;;;;6.25;5.50;;;;;2.99;78.58;100950.75;5033599;28;45490;-76
2022/01/07 00:46:36;;;;;;;;;9.00;6.75;;;;;2.93;79.74;100944.50;5034880;28;45376;-75
2022/01/07 00:49:01;;;;;;;;;3.25;3.00;;;;;2.93;79.64;100947.13;5033541;28;45503;-76
2022/01/07 00:51:27;;;;;;;;;4.00;4.00;;;;;2.87;79.33;100955.75;5031962;28;45442;-76
2022/01/07 00:53:52;;;;;;;;;8.25;6.00;;;;;2.87;79.98;100957.47;5029060;28;45525;-76
2022/01/07 00:56:17;;;;;;;;;4.75;4.00;;;;;2.83;80.07;100961.75;5031146;28;45601;-76
2022/01/07 00:58:43;;;;;;;;;4.50;1.50;;;;;2.83;80.40;100961.75;5033731;28;53623;-76
2022/01/07 01:01:08;;;;;;;;;5.00;3.25;;;;;2.84;80.38;100950.47;5032062;28;45380;-75
2022/01/07 01:03:33;;;;;;;;;3.50;3.50;;;;;2.87;80.60;100963.59;5032581;28;45650;-75
2022/01/07 01:05:59;;;;;;;;;3.00;3.00;;;;;2.86;80.60;100947.91;5035466;28;45485;-74
2022/01/07 01:08:26;;;;;;;;;4.00;3.50;;;;;2.88;80.83;100947.03;5033530;28;47044;-75
2022/01/07 01:10:52;;;;;;;;;1.50;1.50;;;;;2.88;80.39;100941.81;5033947;28;45451;-76
2022/01/07 01:13:17;;;;;;;;;2.50;1.00;;;;;2.89;80.70;100940.97;5034494;28;45549;-76
2022/01/07 01:15:43;;;;;;;;;0.00;0.00;;;;;2.86;80.51;100924.41;5048492;28;45378;-76
2022/01/07 01:18:08;;;;;;;;;4.00;4.00;;;;;2.84;80.13;100938.28;5024935;28;45496;-76
2022/01/07 01:20:35;;;;;;;;;4.50;4.50;;;;;2.86;80.33;100938.31;5033380;28;45385;-75
2022/01/07 01:23:00;;;;;;;;;5.25;0.00;;;;;2.86;80.27;100930.47;5031697;28;45459;-75
2022/01/07 01:25:26;;;;;;;;;3.00;3.00;;;;;2.85;80.64;100939.16;5031414;28;45377;-75
2022/01/07 01:27:52;;;;;;;;;9.00;4.00;;;;;2.89;80.43;100929.66;5033473;28;45620;-76
2022/01/07 01:30:18;;;;;;;;;9.00;4.00;;;;;2.82;80.40;100915.59;5032280;28;45544;-76
2022/01/07 01:32:48;;;;;;;;;6.75;3.75;;;;;2.87;80.56;100947.91;5027781;28;45416;-74
2022/01/07 01:35:15;;;;;;;;;12.00;4.00;;;;;2.86;80.44;100940.94;5031979;28;45461;-74
2022/01/07 01:37:41;;;;;;;;;2.50;0.25;;;;;2.88;79.96;100933.13;5032914;28;45547;-75
2022/01/07 01:40:08;;;;;;;;;3.75;3.25;;;;;2.83;80.11;100949.56;5034119;28;45472;-76
2022/01/07 01:42:34;;;;;;;;;4.50;4.00;;;;;2.87;80.94;100952.25;5047256;28;45522;-75
2022/01/07 01:44:59;;;;;;;;;8.50;5.50;;;;;2.83;80.18;100931.31;5034964;28;45711;-75
2022/01/07 01:47:25;;;;;;;;;4.00;4.00;;;;;2.87;81.06;100947.91;5034961;28;45301;-75
2022/01/07 01:49:50;;;;;;;;;4.00;3.00;;;;;2.89;80.17;100945.34;5030527;28;47026;-78
2022/01/07 01:52:16;;;;;;;;;0.00;0.00;;;;;2.89;80.52;100946.19;5032940;28;45550;-79
2022/01/07 01:54:45;;;;;;;;;10.25;3.00;;;;;2.87;80.59;100947.91;5032171;28;45429;-75
2022/01/07 01:57:13;;;;;;;;;6.00;4.50;;;;;2.92;79.98;100938.41;5031371;28;46681;-75
2022/01/07 01:59:39;;;;;;;;;9.75;6.25;;;;;2.93;81.16;100950.63;5031070;28;45464;-75
2022/01/07 02:02:04;;;;;;;;;4.00;4.00;;;;;2.93;80.70;100931.44;5033378;28;45464;-75
2022/01/07 02:04:30;;;;;;;;;2.75;2.50;;;;;2.97;80.35;100928.91;5032146;28;45551;-76
2022/01/07 02:06:56;;;;;;;;;7.25;4.00;;;;;2.98;80.41;100928.06;5030495;28;45913;-76
2022/01/07 02:09:29;;;;;;;;;3.50;3.25;;;;;3.01;80.31;100924.66;5028136;28;45425;-75
2022/01/07 02:11:54;;;;;;;;;7.00;6.25;;;;;2.97;80.05;100918.47;5029799;28;45390;-75
2022/01/07 02:14:19;;;;;;;;;5.00;3.25;;;;;3.06;80.41;100922.09;5033512;28;45359;-76
2022/01/07 02:16:45;;;;;;;;;3.00;1.00;;;;;3.07;80.79;100929.06;5034226;28;45381;-74
2022/01/07 02:19:11;;;;;;;;;4.50;3.00;;;;;3.08;79.92;100925.63;5026186;28;45290;-76
2022/01/07 02:21:37;;;;;;;;;7.00;6.00;;;;;3.09;80.04;100919.53;5032993;28;45352;-77
2022/01/07 02:24:04;;;;;;;;;6.75;4.00;;;;;3.09;80.72;100914.31;5029997;28;45439;-75
2022/01/07 02:26:32;;;;;;;;;3.00;3.00;;;;;3.09;80.11;100906.47;5032347;28;46354;-76
2022/01/07 02:28:58;;;;;;;;;6.00;3.00;;;;;3.03;80.66;100892.44;5027039;28;45500;-76
2022/01/07 02:31:23;;;;;;;;;3.75;3.75;;;;;3.09;80.76;100909.09;5032060;28;45464;-74
2022/01/07 02:33:49;;;;;;;;;5.50;5.50;;;;;3.08;81.32;100899.50;5026484;28;45407;-76
2022/01/07 02:36:14;;;;;;;;;5.50;4.50;;;;;3.14;81.02;100905.72;5031180;28;45354;-76
2022/01/07 02:38:39;;;;;;;;;3.00;3.00;;;;;3.09;80.80;100885.59;5016776;28;45520;-77
2022/01/07 02:41:05;;;;;;;;;4.50;3.50;;;;;3.13;81.57;100882.19;5014379;28;45519;-76
2022/01/07 02:43:31;;;;;;;;;4.00;3.00;;;;;3.16;81.20;100890.94;5025003;28;45506;-75
2022/01/07 02:45:57;;;;;;;;;3.50;3.50;;;;;3.15;81.35;100876.09;5024200;28;45350;-75
2022/01/07 02:48:22;;;;;;;;;3.75;3.75;;;;;3.16;81.14;100874.38;5028297;28;45427;-75
2022/01/07 02:50:47;;;;;;;;;5.75;3.75;;;;;3.14;81.44;100878.69;5017716;28;45379;-76
2022/01/07 02:53:13;;;;;;;;;5.50;3.50;;;;;3.10;81.46;100869.03;5019675;28;45464;-75
2022/01/07 02:55:40;;;;;;;;;1.00;1.00;;;;;3.12;80.97;100864.75;5017021;28;45806;-75
2022/01/07 02:58:05;;;;;;;;;4.00;4.00;;;;;3.12;81.37;100869.97;5019103;28;45547;-75
2022/01/07 03:00:32;;;;;;;;;3.00;3.00;;;;;3.15;81.83;100870.00;5026389;28;45757;-76
2022/01/07 03:02:58;;;;;;;;;3.00;3.00;;;;;3.16;81.01;100866.56;5036438;28;45385;-75
2022/01/07 03:05:24;;;;;;;;;4.00;0.00;;;;;3.16;81.42;100871.78;5037244;28;45499;-77
2022/01/07 03:07:50;;;;;;;;;4.00;3.50;;;;;3.19;81.78;100872.69;5034442;28;45340;-75
2022/01/07 03:10:18;;;;;;;;;3.00;3.00;;;;;3.22;81.05;100877.09;5030621;28;45446;-75
2022/01/07 03:12:44;;;;;;;;;3.00;3.00;;;;;3.23;81.07;100870.97;5028520;28;45550;-75
2022/01/07 03:15:11;;;;;;;;;8.50;3.25;;;;;3.26;80.63;100871.03;5037643;28;46357;-75
2022/01/07 03:17:40;;;;;;;;;5.00;4.00;;;;;3.26;81.05;100881.47;5036837;28;45437;-76
2022/01/07 03:20:12;;;;;;;;;3.00;0.00;;;;;3.28;81.20;100868.44;5050061;28;45417;-76
2022/01/07 03:22:51;;;;;;;;;1.00;1.00;;;;;3.27;81.37;100864.97;5063083;27;45567;-74
2022/01/07 03:25:18;;;;;;;;;0.00;0.00;;;;;3.29;80.88;100863.22;5040541;28;45434;-74
2022/01/07 03:27:44;;;;;;;;;2.75;2.50;;;;;3.29;80.31;100871.06;5027847;27;45484;-75
2022/01/07 03:30:12;;;;;;;;;3.00;3.00;;;;;3.30;80.22;100870.22;5033366;28;45524;-74
2022/01/07 03:32:38;;;;;;;;;2.00;2.00;;;;;3.31;80.71;100874.59;5037152;28;45604;-74
2022/01/07 03:35:06;;;;;;;;;2.50;2.50;;;;;3.32;80.70;100860.66;5033472;28;45622;-75
2022/01/07 03:37:31;;;;;;;;;6.25;5.50;;;;;3.33;80.18;100862.44;5036707;27;45594;-73
2022/01/07 03:39:57;;;;;;;;;3.75;3.75;;;;;3.31;80.51;100851.09;5038082;28;45543;-75
2022/01/07 03:42:22;;;;;;;;;1.00;1.00;;;;;3.31;80.20;100845.88;5035473;28;45588;-75
2022/01/07 03:44:47;;;;;;;;;1.00;1.00;;;;;3.33;79.86;100845.88;5020747;27;46018;-76
2022/01/07 03:47:13;;;;;;;;;7.00;3.75;;;;;3.31;79.32;100861.53;5045175;28;45472;-74
2022/01/07 03:49:38;;;;;;;;;1.50;1.50;;;;;3.33;80.06;100859.81;5035791;27;45484;-75
2022/01/07 03:52:04;;;;;;;;;3.00;3.00;;;;;3.35;79.19;100855.47;5037004;27;45472;-75
2022/01/07 03:54:30;;;;;;;;;1.00;1.00;;;;;3.35;79.49;100850.25;5027299;28;45344;-74
2022/01/07 03:56:55;;;;;;;;;5.50;1.00;;;;;3.37;79.14;100847.66;5039625;28;45730;-76
2022/01/07 03:59:20;;;;;;;;;3.50;3.50;;;;;3.33;79.48;100844.13;5040957;27;45405;-76
2022/01/07 04:01:46;;;;;;;;;3.25;2.50;;;;;3.33;79.23;100836.31;5036411;28;45688;-76
2022/01/07 04:04:11;;;;;;;;;1.00;1.00;;;;;3.34;79.84;100851.13;5034834;27;45430;-74
2022/01/07 04:06:36;;;;;;;;;1.75;1.00;;;;;3.34;79.30;100840.69;5037857;28;45444;-76
2022/01/07 04:09:02;;;;;;;;;3.50;0.00;;;;;3.36;78.86;100846.78;5026167;27;45462;-75
2022/01/07 04:11:28;;;;;;;;;2.00;2.00;;;;;3.38;79.56;100845.06;5031239;28;45902;-74
2022/01/07 04:13:53;;;;;;;;;3.25;3.25;;;;;3.34;79.18;100827.63;5021436;27;45659;-76
2022/01/07 04:16:18;;;;;;;;;5.00;1.00;;;;;3.33;79.54;100818.00;5044692;28;45723;-77
2022/01/07 04:18:44;;;;;;;;;1.75;0.50;;;;;3.36;79.52;100818.03;5043653;28;45486;-76
2022/01/07 04:21:09;;;;;;;;;4.00;3.50;;;;;3.40;79.02;100812.88;5029795;28;46272;-74
2022/01/07 04:23:35;;;;;;;;;1.25;0.75;;;;;3.38;79.06;100821.53;5035162;27;45534;-74
2022/01/07 04:26:00;;;;;;;;;1.50;1.50;;;;;3.37;79.15;100811.97;5029596;28;45649;-76
2022/01/07 04:28:26;;;;;;;;;2.25;1.00;;;;;3.41;79.03;100822.47;5025197;28;45613;-75
2022/01/07 04:30:51;;;;;;;;;6.00;0.75;;;;;3.40;79.49;100811.13;5014411;27;45493;-74
2022/01/07 04:33:25;;;;;;;;;0.25;0.25;;;;;3.44;79.26;100814.66;5021134;28;45466;-75
2022/01/07 04:35:50;;;;;;;;;0.00;0.00;;;;;3.42;78.75;100812.03;5009963;28;45526;-74
2022/01/07 04:38:15;;;;;;;;;3.00;1.00;;;;;3.46;78.93;100813.84;5015271;28;45568;-74
2022/01/07 04:40:41;;;;;;;;;3.00;1.00;;;;;3.47;78.69;100801.63;5012948;28;45891;-75
2022/01/07 04:43:07;;;;;;;;;0.75;0.75;;;;;3.43;79.15;100802.44;5014248;28;45373;-75
2022/01/07 04:45:33;;;;;;;;;2.25;1.00;;;;;3.48;79.30;100811.25;5029365;28;45400;-75
2022/01/07 04:47:58;;;;;;;;;0.00;0.00;;;;;3.49;79.17;100812.97;5019671;28;45526;-75
2022/01/07 04:50:24;;;;;;;;;1.00;1.00;;;;;3.50;79.37;100820.84;5015957;28;45480;-74
2022/01/07 04:52:50;;;;;;;;;0.00;0.00;;;;;3.51;78.93;100825.22;5001146;28;45498;-75
2022/01/07 04:55:25;;;;;;;;;0.75;0.75;;;;;3.53;79.24;100825.22;5012481;28;45445;-75
2022/01/07 04:57:51;;;;;;;;;3.00;1.00;;;;;3.53;79.32;100823.50;5010420;28;45571;-75
2022/01/07 05:00:19;;;;;;;;;1.00;1.00;;;;;3.53;78.98;100822.63;5020565;28;45609;-75
2022/01/07 05:02:45;;;;;;;;;0.00;0.00;;;;;3.56;78.97;100820.03;5015730;28;45499;-74
2022/01/07 05:05:11;;;;;;;;;0.00;0.00;;;;;3.58;79.22;100812.22;4997476;28;45520;-75
2022/01/07 05:07:37;;;;;;;;;4.00;0.75;;;;;3.57;79.20;100808.75;5012384;28;45479;-75
2022/01/07 05:10:11;;;;;;;;;1.00;1.00;;;;;3.54;78.83;100796.50;5017290;28;45537;-76
2022/01/07 05:12:37;;;;;;;;;0.00;0.00;;;;;3.56;79.08;100809.59;5012403;28;45550;-75
2022/01/07 05:15:05;;;;;;;;;2.00;2.00;;;;;3.54;78.95;100806.09;5012977;27;45639;-74
2022/01/07 05:17:31;;;;;;;;;2.25;0.00;;;;;3.52;79.05;100799.94;5015323;28;45254;-75
2022/01/07 05:19:56;;;;;;;;;0.75;0.50;;;;;3.48;79.00;100800.78;5014418;28;46352;-75
2022/01/07 05:22:22;;;;;;;;;2.00;2.00;;;;;3.49;79.35;100810.38;5015281;27;45527;-75
2022/01/07 05:24:47;;;;;;;;;0.00;0.00;;;;;3.46;79.36;100803.38;5012832;27;45603;-75
2022/01/07 05:27:12;;;;;;;;;5.50;1.00;;;;;3.44;79.47;100819.91;5019321;28;45789;-75
2022/01/07 05:29:38;;;;;;;;;4.00;1.00;;;;;3.43;79.75;100812.91;5009983;27;45472;-75
2022/01/07 05:32:05;;;;;;;;;0.00;0.00;;;;;3.39;79.35;100819.84;5015163;28;45518;-74
2022/01/07 05:34:30;;;;;;;;;2.75;0.00;;;;;3.35;79.27;100824.13;5013647;28;45494;-74
2022/01/07 05:36:56;;;;;;;;;1.00;0.00;;;;;3.37;79.53;100822.44;5012909;28;45542;-75
2022/01/07 05:39:22;;;;;;;;;1.50;0.00;;;;;3.34;79.34;100818.88;5011044;28;46117;-75
2022/01/07 05:41:47;;;;;;;;;0.00;0.00;;;;;3.24;79.72;100802.22;5010979;28;45527;-74
2022/01/07 05:44:13;;;;;;;;;3.25;1.00;;;;;3.33;80.02;100817.13;5012397;28;45484;-75
2022/01/07 05:46:38;;;;;;;;;0.00;0.00;;;;;3.31;80.06;100819.72;5017170;28;45509;-75
2022/01/07 05:49:04;;;;;;;;;2.50;0.00;;;;;3.32;79.65;100815.38;5010844;28;45488;-76
2022/01/07 05:51:29;;;;;;;;;0.50;0.50;;;;;3.30;80.17;100815.34;5016070;28;45440;-75
2022/01/07 05:53:54;;;;;;;;;0.25;0.00;;;;;3.29;79.84;100821.44;5013353;28;45436;-75
2022/01/07 05:56:20;;;;;;;;;0.00;0.00;;;;;3.29;80.03;100810.09;5012094;28;45604;-75
2022/01/07 05:58:45;;;;;;;;;0.00;0.00;;;;;3.29;80.73;100810.97;5014173;28;45529;-75
2022/01/07 06:01:12;;;;;;;;;0.00;0.00;;;;;3.27;81.00;100814.44;5017536;27;45392;-75
2022/01/07 06:03:41;;;;;;;;;1.50;1.50;;;;;3.28;80.50;100813.56;5012567;28;45548;-74
2022/01/07 06:06:07;;;;;;;;;1.00;0.00;;;;;3.26;81.05;100812.69;5018970;28;45620;-75
2022/01/07 06:08:32;;;;;;;;;3.00;0.00;;;;;3.29;80.95;100815.34;5015926;28;46178;-76
2022/01/07 06:10:57;;;;;;;;;1.00;1.00;;;;;3.28;81.00;100819.69;5015610;28;45438;-77
2022/01/07 06:13:23;;;;;;;;;3.00;0.25;;;;;3.27;81.03;100823.16;5011514;28;45518;-76
2022/01/07 06:15:48;;;;;;;;;1.00;1.00;;;;;3.29;80.93;100824.03;5012536;27;45523;-76
2022/01/07 06:18:14;;;;;;;;;1.50;0.00;;;;;3.24;80.96;100817.88;5027196;28;47067;-75
2022/01/07 06:20:39;;;;;;;;;3.00;1.00;;;;;3.27;81.58;100833.59;5014155;27;45599;-79
2022/01/07 06:23:04;;;;;;;;;1.00;0.00;;;;;3.28;81.55;100824.03;5014053;27;45859;-78
2022/01/07 06:25:30;;;;;;;;;3.00;3.00;;;;;3.26;81.73;100829.22;5014357;28;45356;-79
2022/01/07 06:27:55;;;;;;;;;0.75;0.00;;;;;3.28;82.33;100831.84;5016508;28;45500;-78
2022/01/07 06:30:21;;;;;;;;;0.50;0.00;;;;;3.29;82.36;100837.09;5015748;28;45469;-79
2022/01/07 06:32:46;;;;;;;;;3.25;3.25;;;;;3.32;82.58;100839.75;5015674;28;45498;-79
2022/01/07 06:35:12;;;;;;;;;1.00;1.00;;;;;3.31;82.70;100831.91;5013381;28;45396;-78
2022/01/07 06:37:38;;;;;;;;;1.00;1.00;;;;;3.33;82.80;100831.06;5012848;27;46355;-79
2022/01/07 06:40:05;;;;;;;;;0.50;0.50;;;;;3.41;82.31;100833.78;5011927;28;45338;-78
2022/01/07 06:42:31;;;;;;;;;0.75;0.75;;;;;3.44;82.90;100820.75;5012199;28;45536;-78
2022/01/07 06:44:57;;;;;;;;;1.00;1.00;;;;;3.45;82.70;100812.06;5011137;28;45443;-78
2022/01/07 06:47:22;;;;;;;;;2.00;1.00;;;;;3.45;82.91;100819.03;5013422;28;45456;-77
2022/01/07 06:49:48;;;;;;;;;3.00;0.00;;;;;3.53;82.72;100817.41;5013184;28;45558;-76
2022/01/07 06:52:13;;;;;;;;;2.00;2.00;;;;;3.53;82.52;100820.88;5019071;27;45672;-77
2022/01/07 06:54:39;;;;;;;;;0.00;0.00;;;;;3.56;82.70;100814.81;5020350;28;46508;-78
2022/01/07 06:57:04;;;;;;;;;4.00;1.00;;;;;3.61;82.87;100818.34;5014291;28;45575;-76
2022/01/07 06:59:30;;;;;;;;;1.50;0.25;;;;;3.61;82.08;100812.25;5018160;28;45410;-77
2022/01/07 07:01:55;;;;;;;;;2.00;1.00;;;;;3.67;82.13;100814.94;5019056;28;45565;-77
2022/01/07 07:04:21;;;;;;;;;0.50;0.50;;;;;3.68;82.50;100814.97;5020700;28;45657;-78
2022/01/07 07:06:46;;;;;;;;;5.50;3.00;;;;;3.68;82.13;100809.75;4994661;28;47687;-78
2022/01/07 07:09:12;;;;;;;;;1.00;1.00;;;;;3.73;81.74;100822.88;5013149;27;45256;-78
2022/01/07 07:11:39;;;;;;;;;4.00;1.00;;;;;3.74;82.70;100827.25;4994865;28;45422;-77
2022/01/07 07:14:05;;;;;;;;;1.00;1.00;;;;;3.74;82.52;100820.25;5009291;28;45430;-78
2022/01/07 07:16:31;;;;;;;;;0.25;0.25;;;;;3.79;82.52;100828.16;4997371;28;47129;-77
2022/01/07 07:18:56;;;;;;;;;2.00;1.00;;;;;3.82;82.38;100832.56;5011299;28;45591;-78
2022/01/07 07:21:21;;;;;;;;;6.00;2.50;;;;;3.87;82.60;100842.22;4996976;28;45505;-78
2022/01/07 07:23:47;;;;;;;;;1.00;1.00;;;;;3.87;82.42;100825.63;5016486;27;45478;-78
2022/01/07 07:26:13;;;;;;;;;1.00;1.00;;;;;3.91;82.85;100833.53;5017849;27;45731;-77
2022/01/07 07:28:39;;;;;;;;;0.00;0.00;;;;;3.93;82.37;100825.69;5023076;27;45752;-76
2022/01/07 07:31:08;;;;;;;;;4.00;3.00;;;;;3.97;82.69;100835.34;5032796;27;45515;-77
2022/01/07 07:33:56;;;;;;;;;0.50;0.00;;;;;3.98;82.84;100829.25;5018509;27;45549;-80
2022/01/07 07:36:30;;;;;;;;;1.00;1.00;;;;;4.01;82.89;100839.75;5024409;27;46105;-75
2022/01/07 07:39:07;;;;;;;;;1.50;1.00;;;;;4.05;83.15;100846.78;5017812;28;45611;-77
2022/01/07 07:41:34;;;;;;;;;2.50;0.25;;;;;4.09;83.22;100852.94;5012767;27;45444;-77
2022/01/07 07:44:00;;;;;;;;;0.00;0.00;;;;;4.08;83.12;100854.66;5012189;28;45663;-77
2022/01/07 07:46:28;;;;;;;;;5.50;1.00;;;;;4.12;83.14;100863.41;5014657;28;46204;-76
2022/01/07 07:48:54;;;;;;;;;4.00;1.00;;;;;4.15;82.75;100860.84;5021803;28;45381;-77
2022/01/07 07:51:20;;;;;;;;;2.50;0.50;;;;;4.18;82.98;100862.63;5014285;28;45859;-76
2022/01/07 07:53:46;;;;;;;;;3.00;1.00;;;;;4.19;82.84;100873.09;5019711;28;45533;-77
2022/01/07 07:56:14;;;;;;;;;4.00;0.50;;;;;4.25;83.15;100880.13;5015238;28;46342;-75
2022/01/07 07:58:39;;;;;;;;;3.00;1.00;;;;;4.26;82.66;100866.19;5016036;28;45437;-76
2022/01/07 08:01:05;;;;;;;;;2.50;2.50;;;;;4.28;83.16;100869.69;5013690;28;45288;-77
2022/01/07 08:03:31;;;;;;;;;2.50;2.50;;;;;4.30;83.72;100877.53;5013582;28;45407;-77
2022/01/07 08:05:56;;;;;;;;;1.75;1.00;;;;;4.34;83.52;100884.56;5013806;28;46150;-77
2022/01/07 08:08:22;;;;;;;;;1.50;1.50;;;;;4.33;84.45;100883.72;5011076;28;45382;-76
2022/01/07 08:10:51;;;;;;;;;0.25;0.25;;;;;4.37;84.73;100880.28;5018640;28;45476;-72
2022/01/07 08:13:29;;;;;;;;;3.50;1.00;;;;;4.40;84.32;100882.03;5016845;28;45500;-74
2022/01/07 08:15:59;;;;;;;;;0.00;0.00;;;;;4.41;83.91;100870.69;5015847;28;45527;-76
2022/01/07 08:18:29;;;;;;;;;3.25;1.00;;;;;4.42;84.41;100862.88;5018964;28;45479;-75
2022/01/07 08:20:56;;;;;;;;;1.00;1.00;;;;;4.41;84.25;100876.81;5018239;28;45433;-75
2022/01/07 08:23:22;;;;;;;;;3.00;0.00;;;;;4.43;84.25;100872.47;5015444;27;45611;-74
2022/01/07 08:25:48;;;;;;;;;2.00;2.00;;;;;4.40;84.36;100861.09;5016206;28;46397;-75
2022/01/07 08:28:15;;;;;;;;;1.00;1.00;;;;;4.43;84.37;100867.25;5012115;28;45459;-77
2022/01/07 08:36:14;;;;;;;;;0.00;0.00;;;;;4.56;83.14;100869.97;5019943;28;45688;-77
2022/01/07 08:38:39;;;;;;;;;0.25;0.25;;;;;4.57;83.53;100861.25;5019087;28;45490;-75
2022/01/07 08:41:05;;;;;;;;;0.00;0.00;;;;;4.57;83.41;100861.25;5021566;28;45398;-75
2022/01/07 08:43:31;;;;;;;;;0.75;0.00;;;;;4.59;82.65;100864.78;5017001;28;45405;-75
2022/01/07 08:45:56;;;;;;;;;0.00;0.00;;;;;4.61;82.75;100863.03;5016139;28;46188;-75
2022/01/07 08:48:21;;;;;;;;;0.00;0.00;;;;;4.62;82.82;100875.28;5017064;28;45752;-74
2022/01/07 08:50:47;;;;;;;;;0.50;0.50;;;;;4.60;83.01;100871.75;5022697;28;45690;-75
2022/01/07 08:53:13;;;;;;;;;0.00;0.00;;;;;4.57;82.70;100866.47;5017668;28;45421;-75
2022/01/07 08:55:39;;;;;;;;;1.00;1.00;;;;;4.53;82.95;100857.72;5016860;28;45430;-75
2022/01/07 08:58:05;;;;;;;;;0.00;0.00;;;;;4.58;82.49;100842.06;5015423;27;45561;-76
2022/01/07 09:00:32;;;;;;;;;0.00;0.00;;;;;4.55;82.33;100802.75;5012493;28;45630;-77
2022/01/07 09:02:58;;;;;;;;;0.00;0.00;;;;;4.59;82.08;100822.88;5017506;28;45588;-78
2022/01/07 09:05:24;;;;;;;;;0.00;0.00;;;;;4.57;82.68;100821.97;4997683;28;45801;-76
2022/01/07 09:07:49;;;;;;;;;0.00;0.00;;;;;4.60;82.74;100822.88;5014743;28;45531;-75
2022/01/07 09:10:15;;;;;;;;;0.75;0.75;;;;;4.60;83.06;100790.56;5015406;28;45456;-75
2022/01/07 09:12:40;;;;;;;;;0.00;0.00;;;;;4.65;82.69;100804.59;5014118;28;45374;-76
2022/01/07 09:15:06;;;;;;;;;0.00;0.00;;;;;4.71;82.82;100809.00;5012694;27;45482;-76
2022/01/07 09:17:32;;;;;;;;;0.00;0.00;;;;;4.73;83.00;100826.47;5012904;28;45489;-77
2022/01/07 09:19:59;;;;;;;;;0.50;0.00;;;;;4.76;83.23;100830.88;5020299;27;45512;-77
2022/01/07 09:22:25;;;;;;;;;1.50;0.00;;;;;4.84;82.89;100844.03;5018445;27;45442;-78
2022/01/07 09:24:51;;;;;;;;;2.00;1.25;;;;;4.88;82.63;100846.66;4994641;28;47895;-76
2022/01/07 09:27:16;;;;;;;;;1.00;0.00;;;;;4.94;83.09;100853.72;5010684;28;45533;-77
2022/01/07 09:29:42;;;;;;;;;2.00;0.00;;;;;4.96;82.29;100849.34;5018786;28;45730;-76
2022/01/07 09:32:08;;;;;;;;;0.00;0.00;;;;;5.03;82.56;100847.66;5018974;27;45644;-76
2022/01/07 09:34:33;;;;;;;;;0.00;0.00;;;;;5.14;82.39;100849.47;5045927;27;46999;-75
2022/01/07 09:36:59;;;;;;;;;0.00;0.00;;;;;5.24;81.35;100857.38;5014842;28;45687;-77
2022/01/07 09:39:24;;;;;;;;;0.00;0.00;;;;;5.35;80.77;100866.22;5016622;28;45504;-78
2022/01/07 09:41:50;;;;;;;;;0.00;0.00;;;;;5.32;80.38;100860.94;5018753;27;45635;-76
2022/01/07 09:44:15;;;;;;;;;0.00;0.00;;;;;5.34;80.11;100861.81;5018469;27;45980;-77
2022/01/07 09:46:41;;;;;;;;;0.50;0.00;;;;;5.40;79.82;100859.25;5016823;28;45353;-76
2022/01/07 09:49:08;;;;;;;;;0.00;0.00;;;;;5.45;79.83;100849.69;5013501;28;45532;-78
2022/01/07 09:51:37;;;;;;;;;0.00;0.00;;;;;5.52;79.10;100846.19;4993769;27;45458;-76
2022/01/07 09:54:03;;;;;;;;;0.00;0.00;;;;;5.61;79.15;100853.25;5023909;28;45682;-77
2022/01/07 09:56:29;;;;;;;;;1.00;0.00;;;;;5.70;78.70;100839.28;5012067;28;45409;-76
2022/01/07 09:58:54;;;;;;;;;0.00;0.00;;;;;5.95;77.68;100849.88;5011307;27;45702;-77
2022/01/07 10:01:22;;;;;;;;;0.00;0.00;;;;;6.49;76.29;100843.03;5014472;27;45632;-77
2022/01/07 10:03:48;;;;;;;;;0.00;0.00;;;;;7.46;73.74;100842.94;5016018;28;45506;-76
2022/01/07 10:06:25;;;;;;;;;0.00;0.00;;;;;8.33;71.49;100846.03;5019991;28;45474;-76
2022/01/07 10:09:02;;;;;;;;;1.00;0.00;;;;;9.06;68.44;100838.50;5024987;28;45395;-76
2022/01/07 10:11:28;;;;;;;;;0.00;0.00;;;;;9.52;66.53;100830.97;5018134;28;45587;-75
2022/01/07 10:14:17;;;;;;;;;0.00;0.00;;;;;10.17;63.97;100822.22;5020939;28;46082;-73
2022/01/07 10:16:58;;;;;;;;;0.00;0.00;;;;;10.57;62.84;100819.00;5014067;28;45572;-76
2022/01/07 10:19:37;;;;;;;;;1.00;0.00;;;;;10.58;61.65;100826.91;5018538;28;45505;-73
2022/01/07 10:22:14;;;;;;;;;0.00;0.00;;;;;10.84;61.77;100828.22;5011504;27;45449;-75
2022/01/07 10:24:56;;;;;;;;;0.00;0.00;;;;;11.40;60.58;100814.88;5000254;28;47628;-81
2022/01/07 10:27:23;;;;;;;;;0.25;0.00;;;;;11.55;58.83;100811.03;5020848;28;45432;-78
2022/01/07 10:29:49;;;;;;;;;0.00;0.00;;;;;11.67;58.19;100804.63;5022327;28;45369;-78
2022/01/07 10:32:27;;;;;;;;;0.00;0.00;;;;;11.95;57.27;100797.00;5014478;28;45536;-79
2022/01/07 10:35:13;;;;;;;;;1.00;0.00;;;;;12.23;54.91;100793.72;5004417;28;46589;-79
2022/01/07 10:38:00;;;;;;;;;0.00;0.00;;;;;12.57;54.50;100790.25;5023272;28;45422;-78
2022/01/07 10:40:34;;;;;;;;;0.00;0.00;;;;;13.11;52.85;100788.88;5015185;28;45339;-77
2022/01/07 10:43:13;;;;;;;;;0.00;0.00;;;;;13.46;51.61;100774.63;5049946;27;45552;-75
2022/01/07 10:45:41;;;;;;;;;0.00;0.00;;;;;13.53;51.27;100774.44;5020166;28;46460;-75
2022/01/07 10:48:07;;;;;;;;;4.00;0.00;;;;;13.82;50.62;100776.28;5015479;27;45603;-76
2022/01/07 10:50:38;;;;;;;;;0.00;0.00;;;;;14.12;50.24;100776.22;5008648;28;45580;-78
2022/01/07 10:53:20;;;;;;;;;0.00;0.00;;;;;14.20;49.73;100768.88;5035739;28;45612;-79
2022/01/07 10:56:06;;;;;;;;;0.00;0.00;;;;;14.36;49.12;100778.13;5036256;27;45457;-78
2022/01/07 10:58:55;;;;;;;;;0.00;0.00;;;;;14.43;48.91;100780.56;5023982;28;45494;-78
2022/01/07 11:01:20;;;;;;;;;1.00;0.00;;;;;14.44;48.32;100777.84;5045024;27;45357;-76
2022/01/07 11:03:49;;;;;;;;;0.00;0.00;;;;;14.45;48.61;100774.25;5026018;27;45484;-76
2022/01/07 11:06:15;;;;;;;;;1.00;0.00;;;;;14.81;48.12;100765.16;5024728;27;45528;-76
2022/01/07 11:08:41;;;;;;;;;3.00;3.00;;;;;14.53;47.89;100774.00;5018716;28;45594;-76
2022/01/07 11:11:11;;;;;;;;;0.50;0.50;;;;;13.77;49.14;100772.88;5025428;28;45446;-78
2022/01/07 11:13:37;;;;;;;;;8.25;8.25;;;;;13.20;50.41;100767.38;5010486;28;45575;-77
2022/01/07 11:16:04;;;;;;;;;0.00;0.00;;;;;12.67;51.21;100761.75;5024652;28;46458;-78
2022/01/07 11:18:31;;;;;;;;;1.50;1.50;;;;;12.25;52.30;100771.59;5021748;28;45354;-78
2022/01/07 11:20:58;;;;;;;;;0.00;0.00;;;;;12.09;53.29;100775.50;5003082;28;45541;-79
2022/01/07 11:23:28;;;;;;;;;3.75;3.75;;;;;11.61;54.57;100787.09;5018145;28;45637;-78
2022/01/07 11:26:02;;;;;;;;;3.00;3.00;;;;;11.59;54.16;100765.09;5007925;28;46470;-77
2022/01/07 11:28:28;;;;;;;;;1.00;1.00;;;;;12.00;54.17;100759.81;5011685;28;45584;-76
2022/01/07 11:31:05;;;;;;;;;4.50;4.50;;;;;12.42;53.35;100770.31;5015785;28;45442;-78
2022/01/07 11:33:31;;;;;;;;;0.00;0.00;;;;;12.72;51.75;100773.09;5026908;28;45668;-76
2022/01/07 11:35:58;;;;;;;;;0.00;0.00;;;;;12.61;52.40;100776.00;5027327;28;45583;-87